CPX788 Details

Departure: Incheon International Airport (RKSI)
Arrival: Changi International Airport (WSSS) at N/A
Route: BOPTA1K BOPTA Z51 BEDES Y711 MUGUS Y742 SALMI Q11 TACLE Q12 KABAM N892 VMR
Notes:


Current Weather Information
RKSI 250400Z 29010KT 9999 FEW020 27/17 Q1013 NOSIG
WSSS 250400Z 16008KT 080V190 9999 SCT018 SCT170 BKN300 31/24 Q1011 NOSIG